Time;durP1;ratioP1;P1;durP2;ratioP2;P2;SDS_P1;SDS_P2;PMS_P1;PMS_P2;Temp;Humidity;BMP_temperature;BMP_pressure;BME280_temperature;BME280_humidity;BME280_pressure;Samples;Min_cycle;Max_cycle;Signal;HPM_P1;HPM_P2
2022/04/07 00:00:55;;;;;;;23.75;9.82;;;384.00;2329.60;;;;;;5070294;28;20431;-58
2022/04/07 00:03:21;;;;;;;33.55;11.32;;;359.20;2329.60;;;;;;5070144;28;20485;-57
2022/04/07 00:05:46;;;;;;;35.13;15.27;;;358.90;2329.60;;;;;;5070035;28;20394;-59
2022/04/07 00:08:12;;;;;;;22.85;9.40;;;358.80;2329.60;;;;;;5069925;28;20025;-58
2022/04/07 00:10:38;;;;;;;17.58;8.10;;;358.50;2329.60;;;;;;5070068;28;20056;-58
2022/04/07 00:13:04;;;;;;;38.22;15.88;;;358.70;2329.60;;;;;;5069917;28;20024;-57
2022/04/07 00:15:31;;;;;;;69.15;34.67;;;358.80;2329.60;;;;;;5070091;28;20035;-57
2022/04/07 00:17:57;;;;;;;44.17;17.50;;;358.80;2329.60;;;;;;5069977;28;20059;-58
2022/04/07 00:20:24;;;;;;;37.83;13.95;;;358.80;2329.60;;;;;;5069938;28;20074;-57
2022/04/07 00:22:50;;;;;;;28.83;9.20;;;358.70;2329.60;;;;;;5070144;28;20483;-57
2022/04/07 00:25:16;;;;;;;20.65;6.00;;;358.70;2329.60;;;;;;5069709;28;20105;-57
2022/04/07 00:27:42;;;;;;;19.85;7.38;;;358.60;2329.60;;;;;;5069950;28;20016;-57
2022/04/07 00:30:13;;;;;;;19.52;6.25;;;358.50;2329.60;;;;;;5069950;28;20474;-57
2022/04/07 00:32:42;;;;;;;19.73;9.77;;;358.60;2329.60;;;;;;5069902;28;20074;-58
2022/04/07 00:35:09;;;;;;;26.10;9.95;;;358.60;2329.60;;;;;;5069698;28;20568;-57
2022/04/07 00:37:35;;;;;;;42.80;19.00;;;358.60;2329.60;;;;;;5069857;28;20363;-57
2022/04/07 00:40:01;;;;;;;54.20;18.88;;;358.70;2329.60;;;;;;5069963;28;20028;-57
2022/04/07 00:42:26;;;;;;;48.05;19.55;;;358.80;2329.60;;;;;;5069570;28;20489;-57
2022/04/07 00:44:52;;;;;;;64.00;24.75;;;358.70;2329.60;;;;;;5069738;28;20504;-57
2022/04/07 00:47:18;;;;;;;39.45;16.08;;;358.80;2329.60;;;;;;5073337;28;20025;-57
2022/04/07 00:49:44;;;;;;;28.60;7.40;;;358.70;2329.60;;;;;;5073746;28;20032;-57
2022/04/07 00:52:10;;;;;;;30.23;11.75;;;358.70;2329.60;;;;;;5073763;28;20056;-57
2022/04/07 00:54:36;;;;;;;25.55;7.30;;;358.80;2329.60;;;;;;5073566;28;20032;-56
2022/04/07 00:57:03;;;;;;;21.65;6.18;;;358.80;2329.60;;;;;;5073786;28;20028;-57
2022/04/07 00:59:29;;;;;;;22.48;6.45;;;358.80;2329.60;;;;;;5073629;28;20035;-57
2022/04/07 01:01:55;;;;;;;20.15;8.18;;;358.90;2329.60;;;;;;5073390;28;20374;-57
2022/04/07 01:04:22;;;;;;;27.55;7.93;;;358.90;2329.60;;;;;;5073456;28;20039;-57
2022/04/07 01:06:48;;;;;;;38.50;14.57;;;359.00;2329.60;;;;;;5073378;28;20033;-57
2022/04/07 01:09:15;;;;;;;37.38;14.10;;;359.10;2329.60;;;;;;5073204;28;20075;-57
2022/04/07 01:11:43;;;;;;;26.00;9.43;;;359.00;2329.60;;;;;;5073371;28;20033;-57
2022/04/07 01:14:08;;;;;;;37.42;16.67;;;358.90;2329.60;;;;;;5072137;28;20024;-58
2022/04/07 01:16:36;;;;;;;30.85;13.85;;;358.60;2329.60;;;;;;5073149;28;20031;-58
2022/04/07 01:19:03;;;;;;;32.53;11.90;;;358.50;2329.60;;;;;;5073298;28;20417;-57
2022/04/07 01:21:32;;;;;;;30.25;13.85;;;358.40;2329.60;;;;;;5073241;28;20020;-57
2022/04/07 01:24:08;;;;;;;32.70;13.68;;;358.50;2329.60;;;;;;5073062;28;20020;-57
2022/04/07 01:26:39;;;;;;;38.25;13.73;;;333.70;2329.60;;;;;;5072882;28;20036;-56
2022/04/07 01:29:15;;;;;;;35.92;17.55;;;333.60;2329.60;;;;;;5073236;28;20431;-57
2022/04/07 01:31:41;;;;;;;42.80;19.90;;;333.70;2329.60;;;;;;5073160;28;20386;-57
2022/04/07 01:34:14;;;;;;;30.73;14.07;;;358.60;2329.60;;;;;;5072469;28;20044;-57
2022/04/07 01:36:46;;;;;;;32.20;13.23;;;358.50;2329.60;;;;;;5073046;28;20472;-57
2022/04/07 01:39:13;;;;;;;31.65;14.00;;;358.70;2329.60;;;;;;5072850;28;20032;-57
2022/04/07 01:41:41;;;;;;;29.73;13.27;;;358.50;2329.60;;;;;;5072661;28;20105;-57
2022/04/07 01:44:09;;;;;;;39.05;16.27;;;358.50;2329.60;;;;;;5072401;28;20032;-57
2022/04/07 01:46:36;;;;;;;35.20;15.63;;;358.50;2329.60;;;;;;5072702;28;20466;-57
2022/04/07 01:49:02;;;;;;;39.45;15.75;;;358.60;2329.60;;;;;;5072919;28;20118;-57
2022/04/07 01:51:29;;;;;;;29.48;12.45;;;358.50;2329.60;;;;;;5072741;28;20050;-57
2022/04/07 01:53:57;;;;;;;27.88;12.50;;;358.60;2329.60;;;;;;5071151;28;20173;-57
2022/04/07 01:56:23;;;;;;;31.63;13.40;;;358.70;2329.60;;;;;;5071843;28;20059;-56
2022/04/07 01:58:50;;;;;;;31.63;10.40;;;358.50;2329.60;;;;;;5072544;28;20032;-56
2022/04/07 02:01:16;;;;;;;28.02;10.05;;;358.50;2329.60;;;;;;5072167;28;20032;-57
2022/04/07 02:03:42;;;;;;;21.58;8.73;;;333.50;2329.60;;;;;;5072330;28;20041;-57
2022/04/07 02:06:12;;;;;;;22.80;8.05;;;333.60;2329.60;;;;;;5072474;28;20103;-57
2022/04/07 02:08:38;;;;;;;25.50;10.25;;;333.40;2329.60;;;;;;5072242;28;20024;-57
2022/04/07 02:11:04;;;;;;;22.73;9.43;;;332.90;2329.60;;;;;;5072179;28;20032;-57
2022/04/07 02:13:34;;;;;;;26.25;9.32;;;332.90;2329.60;;;;;;5072127;28;20055;-57
2022/04/07 02:16:01;;;;;;;26.70;8.13;;;332.90;2329.60;;;;;;5072221;28;20028;-57
2022/04/07 02:18:27;;;;;;;22.80;10.07;;;332.80;2329.60;;;;;;5071990;28;20054;-57
2022/04/07 02:20:53;;;;;;;32.30;13.10;;;332.90;2329.60;;;;;;5071814;28;20025;-57
2022/04/07 02:23:19;;;;;;;24.48;10.73;;;333.10;2329.60;;;;;;5072016;28;20111;-57
2022/04/07 02:25:44;;;;;;;28.17;9.25;;;333.30;2329.60;;;;;;5071807;28;20074;-56
2022/04/07 02:28:10;;;;;;;22.35;7.13;;;333.30;2329.60;;;;;;5071977;28;20380;-57
2022/04/07 02:30:36;;;;;;;16.30;7.80;;;333.40;2329.60;;;;;;5071842;28;20035;-57
2022/04/07 02:33:01;;;;;;;21.58;7.82;;;333.40;2329.60;;;;;;5071959;28;20433;-58
2022/04/07 02:35:27;;;;;;;22.33;8.10;;;333.40;2329.60;;;;;;5071319;28;20139;-56
2022/04/07 02:37:53;;;;;;;28.35;7.07;;;333.40;2329.60;;;;;;5071530;28;20028;-56
2022/04/07 02:40:18;;;;;;;18.35;6.80;;;333.40;2329.60;;;;;;5071672;28;20025;-57
2022/04/07 02:42:44;;;;;;;24.90;8.85;;;333.30;2329.60;;;;;;5071286;28;20116;-57
2022/04/07 02:45:10;;;;;;;22.40;8.20;;;333.10;2329.60;;;;;;5071696;28;20078;-57
2022/04/07 02:47:40;;;;;;;26.02;8.82;;;333.20;2329.60;;;;;;5071628;28;20105;-57
2022/04/07 02:50:07;;;;;;;27.95;12.60;;;333.10;2329.60;;;;;;5071562;28;20371;-56
2022/04/07 02:52:33;;;;;;;32.30;11.07;;;333.20;2329.60;;;;;;5070230;28;20017;-57
2022/04/07 02:54:59;;;;;;;20.63;9.88;;;333.20;2329.60;;;;;;5071298;28;20052;-57
2022/04/07 02:57:26;;;;;;;31.55;9.98;;;333.20;2329.60;;;;;;5070946;28;20020;-57
2022/04/07 02:59:52;;;;;;;32.28;12.30;;;333.30;2329.60;;;;;;5071459;28;20031;-56
2022/04/07 03:02:18;;;;;;;28.95;11.23;;;333.30;2329.60;;;;;;5071394;28;20024;-57
2022/04/07 03:04:44;;;;;;;28.80;10.50;;;333.40;2329.60;;;;;;5070933;28;20072;-56
2022/04/07 03:07:10;;;;;;;46.20;15.93;;;333.40;2329.60;;;;;;5071271;28;20545;-57
2022/04/07 03:09:37;;;;;;;41.72;14.60;;;333.40;2329.60;;;;;;5070217;28;20029;-57
2022/04/07 03:12:03;;;;;;;37.42;13.80;;;333.40;2329.60;;;;;;5071180;28;20485;-57
2022/04/07 03:14:29;;;;;;;29.67;12.10;;;333.30;2329.60;;;;;;5071106;28;20029;-57
2022/04/07 03:16:55;;;;;;;31.85;11.07;;;333.40;2329.60;;;;;;5070815;28;20436;-56
2022/04/07 03:19:20;;;;;;;15.55;6.97;;;333.40;2329.60;;;;;;5070885;28;20078;-57
2022/04/07 03:21:46;;;;;;;20.20;4.70;;;333.30;2329.60;;;;;;5070848;28;20025;-57
2022/04/07 03:24:12;;;;;;;23.70;9.65;;;333.40;2329.60;;;;;;5070845;28;20032;-57
2022/04/07 03:26:39;;;;;;;25.25;11.95;;;333.40;2329.60;;;;;;5070779;28;20113;-57
2022/04/07 03:29:05;;;;;;;22.40;11.00;;;333.40;2329.60;;;;;;5070657;28;20104;-57
2022/04/07 03:31:31;;;;;;;29.27;11.15;;;333.30;2329.60;;;;;;5070666;28;20570;-57
2022/04/07 03:33:57;;;;;;;35.85;11.13;;;333.30;2329.60;;;;;;5070135;28;20115;-57
2022/04/07 03:36:22;;;;;;;18.38;11.18;;;333.30;2329.60;;;;;;5070646;28;20066;-57
2022/04/07 03:38:51;;;;;;;29.85;11.13;;;333.30;2329.60;;;;;;5070557;28;20470;-57
2022/04/07 03:41:20;;;;;;;30.30;11.13;;;333.30;2329.60;;;;;;5070303;28;20111;-57
2022/04/07 03:43:45;;;;;;;21.05;8.23;;;333.20;2329.60;;;;;;5070440;28;20021;-57
2022/04/07 03:46:15;;;;;;;21.70;9.70;;;333.30;2329.60;;;;;;5070599;28;20485;-57
2022/04/07 03:48:41;;;;;;;23.00;9.05;;;333.20;2329.60;;;;;;5070487;28;20020;-57
2022/04/07 03:51:07;;;;;;;22.95;10.27;;;332.90;2329.60;;;;;;5070154;28;20527;-57
2022/04/07 03:53:33;;;;;;;32.08;11.20;;;308.10;2304.00;;;;;;5070201;28;20020;-57
2022/04/07 03:55:58;;;;;;;24.42;11.07;;;307.70;2304.00;;;;;;5070324;28;20102;-57
2022/04/07 03:58:26;;;;;;;28.48;11.63;;;307.80;2304.00;;;;;;5070012;28;20109;-56
2022/04/07 04:00:52;;;;;;;26.55;11.30;;;307.80;2304.00;;;;;;5070416;28;20029;-57
2022/04/07 04:03:18;;;;;;;27.95;11.23;;;308.00;2304.00;;;;;;5070145;28;20383;-57
2022/04/07 04:05:44;;;;;;;94.40;54.92;;;308.10;2304.00;;;;;;5069969;28;20032;-57
2022/04/07 04:08:10;;;;;;;34.63;16.52;;;308.10;2304.00;;;;;;5070070;28;20032;-57
2022/04/07 04:10:35;;;;;;;27.80;16.15;;;308.10;2304.00;;;;;;5070014;28;20025;-57
2022/04/07 04:13:01;;;;;;;30.90;12.68;;;308.10;2304.00;;;;;;5070389;28;20466;-57
2022/04/07 04:15:28;;;;;;;39.05;24.70;;;332.80;2329.60;;;;;;5070140;28;20056;-57
2022/04/07 04:17:54;;;;;;;32.63;16.60;;;332.80;2329.60;;;;;;5069755;28;20426;-57
2022/04/07 04:20:20;;;;;;;30.95;20.30;;;308.10;2304.00;;;;;;5069818;28;20035;-57
2022/04/07 04:22:45;;;;;;;24.00;18.27;;;332.80;2329.60;;;;;;5069921;28;20020;-56
2022/04/07 04:25:11;;;;;;;34.17;19.38;;;332.80;2329.60;;;;;;5069849;28;20476;-56
2022/04/07 04:27:37;;;;;;;26.63;10.77;;;332.80;2329.60;;;;;;5069636;28;20078;-57
2022/04/07 04:30:03;;;;;;;22.20;9.40;;;332.80;2329.60;;;;;;5069760;28;20036;-57
2022/04/07 04:32:29;;;;;;;18.27;7.95;;;332.80;2329.60;;;;;;5069987;28;20016;-57
2022/04/07 04:34:55;;;;;;;21.90;9.40;;;332.80;2329.60;;;;;;5069526;28;20380;-57
2022/04/07 04:37:25;;;;;;;21.67;11.70;;;332.90;2329.60;;;;;;5069861;28;20024;-57
2022/04/07 04:39:54;;;;;;;20.73;9.20;;;332.80;2329.60;;;;;;5069685;28;20040;-57
2022/04/07 04:42:20;;;;;;;21.10;6.10;;;308.00;2304.00;;;;;;5069649;28;20028;-57
2022/04/07 04:44:47;;;;;;;27.42;20.00;;;332.80;2329.60;;;;;;5069502;28;20031;-57
2022/04/07 04:47:17;;;;;;;17.58;7.22;;;332.80;2329.60;;;;;;5069701;28;20273;-57
2022/04/07 04:49:42;;;;;;;19.92;10.60;;;332.90;2329.60;;;;;;5069808;28;20025;-60
2022/04/07 04:52:09;;;;;;;27.40;12.75;;;332.80;2329.60;;;;;;5069558;28;20025;-60
2022/04/07 04:54:35;;;;;;;19.15;6.55;;;332.80;2329.60;;;;;;5069610;28;20021;-60
2022/04/07 04:57:01;;;;;;;32.10;27.15;;;332.90;2329.60;;;;;;5069997;28;20052;-60
2022/04/07 04:59:27;;;;;;;26.08;13.52;;;332.90;2329.60;;;;;;5069669;28;20021;-61
2022/04/07 05:01:53;;;;;;;24.48;11.70;;;332.90;2329.60;;;;;;5069542;28;20031;-61
2022/04/07 05:04:19;;;;;;;19.48;10.25;;;332.90;2329.60;;;;;;5069524;28;20053;-60
2022/04/07 05:06:44;;;;;;;27.13;11.23;;;332.90;2329.60;;;;;;5069403;28;20027;-61
2022/04/07 05:09:10;;;;;;;31.48;22.13;;;333.00;2329.60;;;;;;5069629;28;20134;-60
2022/04/07 05:11:36;;;;;;;18.90;9.07;;;333.00;2329.60;;;;;;5069393;28;20433;-60
2022/04/07 05:14:02;;;;;;;30.13;15.15;;;333.00;2329.60;;;;;;5069826;28;20028;-60
2022/04/07 05:16:28;;;;;;;33.05;20.02;;;332.90;2329.60;;;;;;5069562;28;20390;-60
2022/04/07 05:18:54;;;;;;;20.67;10.20;;;332.90;2329.60;;;;;;5069202;28;20103;-62
2022/04/07 05:21:20;;;;;;;14.57;8.38;;;333.00;2329.60;;;;;;5069383;28;20045;-59
2022/04/07 05:23:45;;;;;;;17.10;7.18;;;333.00;2329.60;;;;;;5069227;28;20064;-61
2022/04/07 05:26:12;;;;;;;16.33;5.78;;;333.00;2329.60;;;;;;5069397;28;20356;-61
2022/04/07 05:28:39;;;;;;;15.65;7.82;;;333.00;2329.60;;;;;;5069205;28;20040;-60
2022/04/07 05:31:06;;;;;;;25.45;7.55;;;333.00;2329.60;;;;;;5069320;28;20032;-61
2022/04/07 05:33:31;;;;;;;18.98;6.65;;;332.90;2329.60;;;;;;5072952;28;20493;-61
2022/04/07 05:35:57;;;;;;;22.95;8.68;;;332.90;2329.60;;;;;;5072815;28;20083;-60
2022/04/07 05:38:23;;;;;;;19.70;7.00;;;332.90;2329.60;;;;;;5072640;28;20040;-61
2022/04/07 05:40:49;;;;;;;20.67;10.57;;;333.00;2329.60;;;;;;5072735;28;20044;-61
2022/04/07 05:43:15;;;;;;;21.20;6.90;;;332.90;2329.60;;;;;;5072424;28;20024;-60
2022/04/07 05:45:42;;;;;;;22.83;9.23;;;332.80;2329.60;;;;;;5072850;28;20033;-61
2022/04/07 05:48:10;;;;;;;15.80;6.82;;;332.80;2329.60;;;;;;5072794;28;20024;-61
2022/04/07 05:50:35;;;;;;;12.00;5.15;;;332.80;2329.60;;;;;;5072550;28;20028;-62
2022/04/07 05:53:02;;;;;;;15.98;6.25;;;308.00;2304.00;;;;;;5071350;28;20120;-61
2022/04/07 05:55:27;;;;;;;26.25;10.75;;;308.10;2304.00;;;;;;5072465;28;20029;-61
2022/04/07 05:57:54;;;;;;;19.90;9.15;;;332.80;2329.60;;;;;;5072219;28;20029;-61
2022/04/07 06:00:20;;;;;;;16.25;7.68;;;333.00;2329.60;;;;;;5072703;28;20028;-61
2022/04/07 06:02:47;;;;;;;25.33;9.20;;;333.00;2329.60;;;;;;5072433;28;20047;-61
2022/04/07 06:05:16;;;;;;;61.28;33.30;;;332.90;2329.60;;;;;;5072000;28;20433;-62
2022/04/07 06:07:42;;;;;;;24.15;9.68;;;333.00;2329.60;;;;;;5072411;28;20734;-61
2022/04/07 06:10:09;;;;;;;10.55;5.32;;;333.10;2329.60;;;;;;5072164;28;20040;-61
2022/04/07 06:12:35;;;;;;;133.18;61.00;;;332.80;2329.60;;;;;;5072265;28;20086;-61
2022/04/07 06:15:01;;;;;;;64.57;36.75;;;332.80;2329.60;;;;;;5072264;28;20028;-60
2022/04/07 06:17:34;;;;;;;178.75;113.40;;;333.00;2329.60;;;;;;5071800;28;20355;-60
2022/04/07 06:20:00;;;;;;;67.45;38.70;;;332.80;2329.60;;;;;;5072117;28;20103;-61
2022/04/07 06:22:26;;;;;;;15.05;9.55;;;333.00;2329.60;;;;;;5071875;28;20115;-60
2022/04/07 06:24:53;;;;;;;58.50;36.08;;;332.90;2329.60;;;;;;5071869;28;20068;-61
2022/04/07 06:27:18;;;;;;;22.13;12.38;;;332.90;2329.60;;;;;;5071924;28;20028;-61
2022/04/07 06:29:44;;;;;;;39.33;23.88;;;332.90;2329.60;;;;;;5071701;28;20021;-61
2022/04/07 06:32:10;;;;;;;21.88;13.45;;;332.80;2329.60;;;;;;5071847;28;20486;-61
2022/04/07 06:34:36;;;;;;;20.73;16.85;;;332.80;2329.60;;;;;;5071462;28;20048;-61
2022/04/07 06:37:02;;;;;;;31.95;18.70;;;333.00;2329.60;;;;;;5071778;28;20029;-61
2022/04/07 06:39:28;;;;;;;23.38;14.10;;;333.10;2329.60;;;;;;5071824;28;20035;-61
2022/04/07 06:41:54;;;;;;;20.40;13.35;;;333.10;2329.60;;;;;;5071260;28;20028;-61
2022/04/07 06:44:20;;;;;;;46.92;31.52;;;333.30;2329.60;;;;;;5071797;28;20028;-60
2022/04/07 06:46:46;;;;;;;32.38;20.60;;;333.50;2329.60;;;;;;5071383;28;20028;-61
2022/04/07 06:49:12;;;;;;;32.25;21.80;;;333.50;2329.60;;;;;;5071534;28;20078;-61
2022/04/07 06:51:37;;;;;;;12.10;7.28;;;333.60;2329.60;;;;;;5071516;28;20024;-61
2022/04/07 06:54:03;;;;;;;39.90;27.23;;;333.60;2329.60;;;;;;5071343;28;20023;-61
2022/04/07 06:56:29;;;;;;;34.05;28.80;;;358.50;2329.60;;;;;;5071555;28;20425;-61
2022/04/07 06:58:55;;;;;;;13.68;10.80;;;358.50;2329.60;;;;;;5071128;28;20033;-61
2022/04/07 07:01:21;;;;;;;17.88;11.95;;;358.60;2329.60;;;;;;5071308;28;20146;-61
2022/04/07 07:03:47;;;;;;;10.27;7.07;;;358.90;2329.60;;;;;;5071035;28;20041;-61
2022/04/07 07:06:12;;;;;;;13.10;11.70;;;358.60;2329.60;;;;;;5071003;28;20407;-61
2022/04/07 07:08:40;;;;;;;8.75;5.32;;;358.80;2329.60;;;;;;5071042;28;20052;-61
2022/04/07 07:11:06;;;;;;;21.33;17.60;;;358.70;2329.60;;;;;;5070956;28;20074;-61
2022/04/07 07:13:36;;;;;;;12.50;9.85;;;358.80;2329.60;;;;;;5071087;28;20059;-61
2022/04/07 07:16:01;;;;;;;17.27;11.60;;;384.00;2329.60;;;;;;5071046;28;20036;-61
2022/04/07 07:18:27;;;;;;;7.00;4.85;;;384.00;2329.60;;;;;;5070595;28;20085;-60
2022/04/07 07:20:53;;;;;;;16.02;10.65;;;359.20;2329.60;;;;;;5069090;28;20036;-61
2022/04/07 07:23:19;;;;;;;9.55;8.52;;;359.00;2329.60;;;;;;5070870;28;20422;-59
2022/04/07 07:25:44;;;;;;;24.70;17.20;;;359.20;2329.60;;;;;;5070414;28;20041;-61
2022/04/07 07:28:10;;;;;;;33.35;24.42;;;359.10;2329.60;;;;;;5069114;28;20111;-61
2022/04/07 07:30:36;;;;;;;4.85;3.08;;;359.20;2329.60;;;;;;5073591;28;20482;-60
2022/04/07 07:33:02;;;;;;;6.22;2.92;;;359.30;2329.60;;;;;;5086592;28;20026;-60
2022/04/07 07:35:28;;;;;;;7.88;4.85;;;359.20;2329.60;;;;;;5090709;28;20051;-61
2022/04/07 07:37:56;;;;;;;7.60;4.97;;;358.90;2329.60;;;;;;5090782;28;20436;-61
2022/04/07 07:40:24;;;;;;;13.52;11.70;;;358.90;2329.60;;;;;;5090819;28;20394;-61
2022/04/07 07:42:53;;;;;;;7.72;3.95;;;359.10;2329.60;;;;;;5090869;28;20058;-61
2022/04/07 07:45:19;;;;;;;6.35;3.70;;;384.10;2329.60;;;;;;5090730;28;20060;-60
2022/04/07 07:47:45;;;;;;;5.38;4.13;;;384.50;2329.60;;;;;;5090683;28;20019;-61
2022/04/07 07:50:10;;;;;;;17.17;9.57;;;384.70;2329.60;;;;;;5090812;28;20077;-61
2022/04/07 07:52:36;;;;;;;8.52;4.65;;;384.90;2329.60;;;;;;5090303;28;20454;-61
2022/04/07 07:55:03;;;;;;;3.83;2.13;;;409.60;2355.20;;;;;;5090352;28;20020;-61
2022/04/07 07:57:30;;;;;;;3.50;2.17;;;409.70;2355.20;;;;;;5090489;28;20030;-61
2022/04/07 07:59:57;;;;;;;33.28;26.38;;;384.80;2329.60;;;;;;5090254;28;20101;-60
2022/04/07 08:02:23;;;;;;;12.15;8.10;;;384.80;2329.60;;;;;;5090391;28;20378;-61
2022/04/07 08:04:49;;;;;;;6.78;3.35;;;384.70;2329.60;;;;;;5090315;28;20039;-61
2022/04/07 08:07:14;;;;;;;9.60;6.45;;;384.60;2329.60;;;;;;5090180;28;20032;-61
2022/04/07 08:09:41;;;;;;;61.63;43.08;;;384.60;2329.60;;;;;;5090459;28;20054;-61
2022/04/07 08:12:07;;;;;;;54.83;41.63;;;384.80;2329.60;;;;;;5089953;28;20172;-61
2022/04/07 08:14:33;;;;;;;28.08;21.15;;;384.60;2329.60;;;;;;5090426;28;20103;-62
2022/04/07 08:16:59;;;;;;;9.27;6.72;;;384.50;2329.60;;;;;;5090440;28;20438;-60
2022/04/07 08:19:25;;;;;;;23.55;15.88;;;384.30;2329.60;;;;;;5090095;28;20099;-61
2022/04/07 08:21:51;;;;;;;24.25;14.60;;;384.30;2329.60;;;;;;5090154;28;20119;-60
2022/04/07 08:24:19;;;;;;;24.85;17.35;;;384.10;2329.60;;;;;;5090003;28;20106;-61
2022/04/07 08:26:45;;;;;;;26.20;18.25;;;359.20;2329.60;;;;;;5089859;28;20111;-61
2022/04/07 08:29:11;;;;;;;15.45;11.43;;;359.00;2329.60;;;;;;5090139;28;20077;-61
2022/04/07 08:31:36;;;;;;;10.77;9.07;;;359.20;2329.60;;;;;;5090041;28;20028;-61
2022/04/07 08:34:02;;;;;;;8.85;6.78;;;384.30;2329.60;;;;;;5072938;28;20557;-61
2022/04/07 08:36:28;;;;;;;44.33;35.60;;;384.60;2329.60;;;;;;5076479;28;20036;-61
2022/04/07 08:38:54;;;;;;;9.23;7.05;;;409.60;2355.20;;;;;;5073136;28;20020;-61
2022/04/07 08:41:21;;;;;;;9.20;6.95;;;409.60;2355.20;;;;;;5080362;28;20049;-60
2022/04/07 08:43:46;;;;;;;15.82;9.90;;;384.90;2329.60;;;;;;5078877;28;20379;-60
2022/04/07 08:46:13;;;;;;;16.67;11.57;;;384.60;2329.60;;;;;;5078757;28;20043;-61
2022/04/07 08:48:43;;;;;;;8.57;5.85;;;384.40;2329.60;;;;;;5080378;28;20032;-60
2022/04/07 08:51:10;;;;;;;9.63;5.70;;;384.40;2329.60;;;;;;5072578;28;20053;-61
2022/04/07 08:53:38;;;;;;;5.65;4.55;;;384.60;2329.60;;;;;;5079607;28;20021;-60
2022/04/07 08:56:05;;;;;;;96.03;85.97;;;384.60;2329.60;;;;;;5077995;28;20021;-61
2022/04/07 08:58:32;;;;;;;4.35;3.40;;;384.60;2329.60;;;;;;5079702;28;20054;-60
2022/04/07 09:00:59;;;;;;;4.22;2.30;;;384.90;2329.60;;;;;;5079921;28;20025;-60
2022/04/07 09:03:25;;;;;;;4.78;2.17;;;409.70;2355.20;;;;;;5077710;28;20028;-61
2022/04/07 09:05:58;;;;;;;4.13;2.65;;;410.00;2355.20;;;;;;5079401;28;20056;-61
2022/04/07 09:08:30;;;;;;;7.70;4.25;;;410.40;2355.20;;;;;;5083403;28;20019;-61
2022/04/07 09:10:56;;;;;;;7.25;5.18;;;410.40;2355.20;;;;;;5083222;28;20470;-61
2022/04/07 09:13:22;;;;;;;15.70;10.88;;;410.40;2355.20;;;;;;5078810;28;20021;-60
2022/04/07 09:15:49;;;;;;;9.77;6.38;;;409.90;2355.20;;;;;;5079618;28;20031;-59
2022/04/07 09:18:24;;;;;;;6.85;4.32;;;410.20;2355.20;;;;;;5080986;28;20039;-61
2022/04/07 09:20:50;;;;;;;50.35;44.75;;;410.50;2355.20;;;;;;5073342;28;20036;-61
2022/04/07 09:23:17;;;;;;;8.30;6.20;;;435.20;2355.20;;;;;;5072944;28;20095;-61
2022/04/07 09:25:49;;;;;;;6.20;3.78;;;435.70;2355.20;;;;;;5072918;28;20052;-61
2022/04/07 09:28:31;;;;;;;6.25;4.28;;;435.90;2278.40;;;;;;5072746;28;20059;-61
2022/04/07 09:30:58;;;;;;;5.07;2.70;;;435.90;2176.00;;;;;;5072805;28;20024;-61
2022/04/07 09:33:26;;;;;;;4.18;2.05;;;460.90;2150.40;;;;;;5072728;28;20032;-61
2022/04/07 09:36:21;;;;;;;4.47;2.28;;;461.10;2022.40;;;;;;5072759;28;20048;-61
2022/04/07 09:38:54;;;;;;;3.75;2.72;;;461.50;1971.20;;;;;;5070848;28;20072;-61
2022/04/07 09:41:21;;;;;;;8.80;8.15;;;461.40;2048.00;;;;;;5072820;28;20115;-61
2022/04/07 09:43:48;;;;;;;3.08;2.10;;;486.40;1971.20;;;;;;5072667;28;20032;-60
2022/04/07 09:46:18;;;;;;;3.22;2.22;;;486.50;1971.20;;;;;;5076405;28;20032;-60
2022/04/07 09:49:12;;;;;;;8.55;6.10;;;487.10;1920.00;;;;;;5072944;28;20052;-61
2022/04/07 09:51:50;;;;;;;10.95;5.97;;;487.30;1843.20;;;;;;5069817;28;20032;-61
2022/04/07 09:54:17;;;;;;;5.95;3.33;;;512.30;1792.00;;;;;;5072449;28;20013;-61
2022/04/07 09:56:46;;;;;;;3.78;1.90;;;512.40;1792.00;;;;;;5072459;28;20039;-61
2022/04/07 09:59:14;;;;;;;3.67;2.88;;;487.30;1817.60;;;;;;5071156;28;20055;-61
2022/04/07 10:01:39;;;;;;;4.85;2.85;;;512.10;1792.00;;;;;;5072755;28;20078;-61
2022/04/07 10:04:08;;;;;;;3.30;2.22;;;487.20;1792.00;;;;;;5072042;28;20432;-61
2022/04/07 10:06:39;;;;;;;4.03;2.97;;;487.00;1843.20;;;;;;5072424;28;20029;-61
2022/04/07 10:09:08;;;;;;;7.30;3.97;;;487.10;1817.60;;;;;;5072114;28;20028;-61
2022/04/07 10:11:34;;;;;;;10.73;6.35;;;487.10;1817.60;;;;;;5072137;28;20029;-61
2022/04/07 10:14:00;;;;;;;10.43;4.53;;;487.10;1792.00;;;;;;5069861;28;20107;-60
2022/04/07 10:16:27;;;;;;;8.82;3.85;;;486.80;1817.60;;;;;;5070446;28;20107;-61
2022/04/07 10:18:56;;;;;;;7.80;4.80;;;486.80;1868.80;;;;;;5070077;28;20032;-61
2022/04/07 10:21:46;;;;;;;8.35;5.45;;;486.90;1843.20;;;;;;5070466;28;20115;-61
2022/04/07 10:24:37;;;;;;;63.13;44.45;;;512.00;1792.00;;;;;;5070342;28;20482;-60
2022/04/07 10:27:08;;;;;;;17.45;12.75;;;512.10;1766.40;;;;;;5069902;28;20033;-61
2022/04/07 10:29:34;;;;;;;16.63;10.60;;;512.30;1715.20;;;;;;5070136;28;20025;-61
2022/04/07 10:32:11;;;;;;;21.05;14.10;;;512.50;1766.40;;;;;;5070435;28;20030;-61
2022/04/07 10:34:53;;;;;;;143.43;111.15;;;512.30;1740.80;;;;;;5069865;28;20040;-61
2022/04/07 10:37:43;;;;;;;22.10;13.48;;;512.10;1740.80;;;;;;5070260;28;20482;-61
2022/04/07 10:40:37;;;;;;;22.15;16.35;;;487.00;1766.40;;;;;;5069864;28;20107;-61
2022/04/07 10:43:14;;;;;;;8.15;4.50;;;487.30;1843.20;;;;;;5070133;28;20028;-61
2022/04/07 10:45:42;;;;;;;7.20;4.70;;;487.10;1894.40;;;;;;5070055;28;20037;-61
2022/04/07 10:48:17;;;;;;;10.52;6.45;;;486.80;1868.80;;;;;;5070007;28;20028;-61
2022/04/07 10:51:13;;;;;;;8.13;4.88;;;486.60;1868.80;;;;;;5069905;28;20089;-61
2022/04/07 10:54:01;;;;;;;12.52;6.03;;;486.80;1817.60;;;;;;4987763;28;20113;-60
2022/04/07 10:56:33;;;;;;;25.92;18.88;;;487.10;1817.60;;;;;;4988040;28;20046;-61
2022/04/07 10:59:24;;;;;;;9.25;7.13;;;487.00;1817.60;;;;;;4988066;28;20042;-61
2022/04/07 11:01:52;;;;;;;3.17;2.13;;;487.20;1817.60;;;;;;4988208;28;20544;-61
2022/04/07 11:04:18;;;;;;;2.08;1.45;;;486.90;1868.80;;;;;;4987946;28;20046;-61
2022/04/07 11:07:02;;;;;;;3.20;1.80;;;487.00;1843.20;;;;;;4987411;28;20121;-61
2022/04/07 11:09:47;;;;;;;5.70;3.75;;;486.80;1868.80;;;;;;4988029;28;20034;-61
2022/04/07 11:12:42;;;;;;;30.35;19.25;;;486.80;1792.00;;;;;;4971474;28;20085;-61
2022/04/07 11:15:17;;;;;;;20.33;17.33;;;486.70;1740.80;;;;;;4987772;28;20046;-60
2022/04/07 11:18:13;;;;;;;7.45;3.45;;;486.80;1766.40;;;;;;4987345;28;20508;-61
2022/04/07 11:21:11;;;;;;;8.55;3.67;;;486.90;1740.80;;;;;;4931483;29;20526;-61
2022/04/07 11:23:43;;;;;;;5.90;3.42;;;487.00;1817.60;;;;;;4925890;29;20531;-61
2022/04/07 11:26:17;;;;;;;6.75;5.10;;;487.00;1715.20;;;;;;4920762;29;20044;-61
2022/04/07 11:29:06;;;;;;;11.30;7.40;;;487.20;1792.00;;;;;;4920847;29;20160;-61
2022/04/07 11:31:49;;;;;;;8.15;4.57;;;512.10;1792.00;;;;;;5019732;28;20037;-61
2022/04/07 11:34:50;;;;;;;5.90;3.40;;;512.20;1817.60;;;;;;5016915;28;20154;-60
2022/04/07 11:37:16;;;;;;;7.97;3.95;;;512.60;1792.00;;;;;;4985911;28;20476;-60
2022/04/07 11:39:49;;;;;;;10.90;7.45;;;512.30;1740.80;;;;;;4989086;28;20105;-60
2022/04/07 11:42:17;;;;;;;8.15;5.45;;;512.40;1766.40;;;;;;4988906;28;20408;-59
2022/04/07 11:44:45;;;;;;;11.30;7.78;;;512.80;1689.60;;;;;;4988097;28;20109;-60
2022/04/07 11:47:32;;;;;;;3.63;2.63;;;537.70;1740.80;;;;;;4986390;28;20069;-60
2022/04/07 11:49:58;;;;;;;4.97;3.30;;;512.80;1740.80;;;;;;4987206;28;20049;-60
2022/04/07 11:52:29;;;;;;;5.82;4.30;;;512.80;1715.20;;;;;;4986887;28;20093;-60
2022/04/07 11:54:57;;;;;;;5.70;3.20;;;512.70;1689.60;;;;;;4970731;28;20037;-60
2022/04/07 11:57:24;;;;;;;5.15;3.50;;;512.50;1715.20;;;;;;4995109;28;20034;-60
2022/04/07 11:59:54;;;;;;;4.05;2.60;;;512.30;1740.80;;;;;;5006095;28;20092;-60
2022/04/07 12:02:21;;;;;;;3.97;2.83;;;487.30;1766.40;;;;;;5006566;28;20022;-60
2022/04/07 12:04:57;;;;;;;6.00;4.00;;;487.20;1766.40;;;;;;5006228;28;20409;-61
2022/04/07 12:07:23;;;;;;;6.05;3.85;;;487.20;1766.40;;;;;;5006472;28;20121;-61
2022/04/07 12:09:49;;;;;;;6.18;3.33;;;487.10;1817.60;;;;;;5007274;28;20116;-61
2022/04/07 12:12:16;;;;;;;4.70;3.42;;;487.20;1766.40;;;;;;5019954;28;20032;-61